Florence, Mississippi
Current Conditions -  °F | °C
As of 4:54 AM on Friday 24 Oct 2014 (Local Time) from KJAN Reporting Station
Haze Haze  
Wind Chill: 44°   Ceiling: Unl
Heat Index: 44°   Visibility: 4mi
Dew Point: 42°   Wind: 0mph
Humidity: 93%   Direction: NA
Pressure: 30.12"   Gusts: NA
Location:  32.15°N, 90.13°W
Report Text: KJAN 240954Z AUTO 00000KT 4SM BR CLR 07/06 A3012 RMK AO2 SLP197 T00670056
Loading
Personal Weather Stations






























Interactive Weather Map
Tropical Storm Tracking
New forecast layout! Learn more

10-Day Weather Forecast

Advertisements
Track Severe Weather on mobile